Time;durP1;ratioP1;P1;durP2;ratioP2;P2;SDS_P1;SDS_P2;PMS_P1;PMS_P2;Temp;Humidity;BMP_temperature;BMP_pressure;BME280_temperature;BME280_humidity;BME280_pressure;Samples;Min_cycle;Max_cycle;Signal;HPM_P1;HPM_P2
2021/05/06 00:05:45;;;;;;;6.05;1.42;;;6.00;75.80;;;;;;5070770;28;20415;-72
2021/05/06 00:32:18;;;;;;;4.57;1.55;;;5.90;76.20;;;;;;5070404;28;20091;-70
2021/05/06 00:34:43;;;;;;;2.75;1.23;;;5.90;76.20;;;;;;5067574;28;20362;-70
2021/05/06 00:37:10;;;;;;;3.33;1.20;;;5.90;76.20;;;;;;5070181;28;20112;-70
2021/05/06 00:39:40;;;;;;;3.10;1.13;;;5.90;76.30;;;;;;5060998;28;20017;-70
2021/05/06 01:01:00;;;;;;;2.35;1.40;;;5.80;76.60;;;;;;5060725;28;20508;-70
2021/05/06 01:06:14;;;;;;;2.10;1.40;;;5.80;76.90;;;;;;5068457;28;20115;-70
2021/05/06 01:08:44;;;;;;;1.65;1.23;;;5.80;77.00;;;;;;5051957;28;20028;-70
2021/05/06 01:11:21;;;;;;;3.17;1.50;;;5.80;77.00;;;;;;5069969;28;20028;-70
2021/05/06 01:13:48;;;;;;;1.92;1.30;;;5.80;77.10;;;;;;5044576;28;20502;-70
2021/05/06 01:16:14;;;;;;;2.90;1.70;;;5.80;77.20;;;;;;5069562;28;20379;-70
2021/05/06 01:18:39;;;;;;;4.22;1.50;;;5.80;77.30;;;;;;5066523;28;20034;-71
2021/05/06 01:21:06;;;;;;;1.70;1.45;;;5.80;77.40;;;;;;5069061;28;20032;-71
2021/05/06 01:23:34;;;;;;;2.83;1.30;;;5.80;77.50;;;;;;5070242;28;20089;-71
2021/05/06 01:26:09;;;;;;;3.20;1.55;;;5.90;77.70;;;;;;5068560;28;20445;-71
2021/05/06 01:28:38;;;;;;;3.83;1.33;;;5.90;77.70;;;;;;5070026;28;20110;-71
2021/05/06 01:31:14;;;;;;;1.27;0.93;;;5.90;77.70;;;;;;5069730;28;20155;-71
2021/05/06 01:36:15;;;;;;;2.35;1.20;;;5.90;77.80;;;;;;5068457;28;20429;-71
2021/05/06 01:49:40;;;;;;;3.85;1.50;;;5.80;78.00;;;;;;5070011;28;20568;-71
2021/05/06 02:00:26;;;;;;;2.60;1.33;;;5.80;77.80;;;;;;5068145;28;20035;-71
2021/05/06 02:02:52;;;;;;;1.48;1.30;;;5.80;77.90;;;;;;5051614;28;20020;-71
2021/05/06 02:05:18;;;;;;;4.40;1.70;;;5.80;78.00;;;;;;5068932;28;20103;-71
2021/05/06 02:07:46;;;;;;;2.78;1.50;;;5.70;78.00;;;;;;5068739;28;20036;-71
2021/05/06 02:10:15;;;;;;;1.98;1.40;;;5.70;78.00;;;;;;5069702;28;20025;-71
2021/05/06 02:12:42;;;;;;;2.05;1.20;;;5.70;78.10;;;;;;5068406;28;20025;-71
2021/05/06 02:15:11;;;;;;;2.10;1.50;;;5.70;78.10;;;;;;5068118;28;20021;-71
2021/05/06 02:17:38;;;;;;;4.13;1.35;;;5.70;78.10;;;;;;5069093;28;20032;-71
2021/05/06 02:20:06;;;;;;;3.83;1.58;;;5.70;78.00;;;;;;5050371;28;20506;-71
2021/05/06 02:22:32;;;;;;;4.05;1.70;;;5.70;78.10;;;;;;5067902;28;20111;-70
2021/05/06 02:24:58;;;;;;;2.25;1.60;;;5.70;78.10;;;;;;5089229;28;20028;-71
2021/05/06 02:27:23;;;;;;;4.72;1.52;;;5.70;78.20;;;;;;5082509;28;20035;-71
2021/05/06 02:29:49;;;;;;;2.15;1.50;;;5.70;78.30;;;;;;5055012;28;20024;-71
2021/05/06 02:32:15;;;;;;;2.85;1.40;;;5.70;78.40;;;;;;5054621;28;20048;-71
2021/05/06 02:34:41;;;;;;;2.47;1.25;;;5.70;78.40;;;;;;5068117;28;20029;-71
2021/05/06 02:37:08;;;;;;;3.17;1.40;;;5.70;78.40;;;;;;5072443;28;20021;-71
2021/05/06 02:39:34;;;;;;;3.45;1.40;;;5.70;78.50;;;;;;5072563;28;20091;-71
2021/05/06 02:41:59;;;;;;;2.60;1.40;;;5.70;78.40;;;;;;5058047;28;20454;-71
2021/05/06 02:44:25;;;;;;;2.53;1.60;;;5.70;78.50;;;;;;5071069;28;20040;-71
2021/05/06 02:46:50;;;;;;;3.22;1.70;;;5.70;79.00;;;;;;5054609;28;20496;-71
2021/05/06 02:49:16;;;;;;;5.03;1.67;;;5.70;78.50;;;;;;5072470;28;20032;-71
2021/05/06 02:51:48;;;;;;;3.90;1.67;;;5.70;78.50;;;;;;5067736;28;20024;-70
2021/05/06 02:54:14;;;;;;;3.58;1.60;;;5.70;78.60;;;;;;5080491;28;20078;-71
2021/05/06 03:04:20;;;;;;;3.03;1.55;;;5.70;78.60;;;;;;5069321;28;20043;-71
2021/05/06 03:07:01;;;;;;;2.28;1.42;;;5.70;78.60;;;;;;5071478;28;20029;-71
2021/05/06 03:21:03;;;;;;;2.70;1.30;;;5.60;78.70;;;;;;5071721;28;20051;-71
2021/05/06 03:23:11;;;;;;;2.72;1.38;;;5.50;78.80;;;;;;5072361;28;20507;-71
2021/05/06 03:25:36;;;;;;;4.25;1.80;;;5.50;78.90;;;;;;5070975;28;20040;-71
2021/05/06 03:30:42;;;;;;;4.20;1.50;;;5.60;79.10;;;;;;5141644;22;20019;-70
2021/05/06 04:21:40;;;;;;;2.88;1.50;;;5.60;79.40;;;;;;5091491;28;20114;-69
2021/05/06 04:37:50;;;;;;;2.88;1.80;;;5.70;78.80;;;;;;5090800;28;20364;-69
2021/05/06 04:46:08;;;;;;;3.40;1.63;;;5.80;78.60;;;;;;5090768;28;20640;-69
2021/05/06 05:04:50;;;;;;;5.25;1.42;;;6.10;78.20;;;;;;5086187;28;20131;-69
2021/05/06 05:07:27;;;;;;;3.28;1.60;;;6.10;78.10;;;;;;5088890;28;20519;-71
2021/05/06 05:13:02;;;;;;;1.98;1.40;;;6.10;77.80;;;;;;5089343;28;20371;-71
2021/05/06 05:28:02;;;;;;;3.03;1.38;;;6.30;78.00;;;;;;5090213;28;20572;-70
2021/05/06 05:30:30;;;;;;;2.92;1.60;;;6.20;77.90;;;;;;5066970;28;20025;-70
2021/05/06 05:32:56;;;;;;;4.15;1.75;;;6.20;78.00;;;;;;5088625;28;20051;-70
2021/05/06 05:35:35;;;;;;;3.15;1.60;;;6.20;78.00;;;;;;5070738;28;20024;-70
2021/05/06 05:38:53;;;;;;;3.63;1.33;;;6.20;78.10;;;;;;5090134;28;20027;-70
2021/05/06 05:46:43;;;;;;;5.18;1.55;;;6.30;78.00;;;;;;5087827;28;20035;-70
2021/05/06 05:54:37;;;;;;;6.72;3.90;;;6.40;78.00;;;;;;5091663;28;20142;-70
2021/05/06 05:57:13;;;;;;;3.83;1.73;;;6.50;78.10;;;;;;5072912;28;20476;-70
2021/05/06 05:59:39;;;;;;;2.95;1.48;;;6.60;78.20;;;;;;5094550;28;20048;-70
2021/05/06 06:02:06;;;;;;;3.80;1.50;;;6.60;78.10;;;;;;5074928;28;20059;-70
2021/05/06 06:04:31;;;;;;;4.63;1.80;;;6.70;77.90;;;;;;5092054;28;20030;-70
2021/05/06 06:06:57;;;;;;;2.63;1.85;;;6.70;77.90;;;;;;5075475;28;20024;-71
2021/05/06 06:09:23;;;;;;;5.10;1.55;;;6.80;77.90;;;;;;5094520;28;20506;-70
2021/05/06 06:11:48;;;;;;;3.08;1.33;;;6.90;77.80;;;;;;5092335;28;20031;-70
2021/05/06 06:14:19;;;;;;;4.57;1.67;;;6.90;77.80;;;;;;5091182;28;20447;-71
2021/05/06 06:16:45;;;;;;;4.70;1.60;;;6.90;77.80;;;;;;5075298;28;20035;-70
2021/05/06 06:19:11;;;;;;;3.22;1.70;;;7.00;77.70;;;;;;5076173;28;20492;-70
2021/05/06 06:21:52;;;;;;;4.95;1.40;;;7.00;77.70;;;;;;5093415;28;20081;-70
2021/05/06 06:24:19;;;;;;;3.10;1.60;;;7.00;77.80;;;;;;5088293;28;20472;-70
2021/05/06 06:26:45;;;;;;;2.80;1.52;;;7.10;77.80;;;;;;5093191;28;20039;-70
2021/05/06 06:29:12;;;;;;;6.95;1.60;;;7.20;77.70;;;;;;5085204;28;20435;-69
2021/05/06 06:31:47;;;;;;;4.55;1.60;;;7.20;77.70;;;;;;5093307;28;20035;-70
2021/05/06 06:34:12;;;;;;;2.03;1.50;;;7.30;77.40;;;;;;5092789;28;20626;-69
2021/05/06 06:36:44;;;;;;;5.50;2.92;;;7.30;77.10;;;;;;5075692;28;20058;-69
2021/05/06 06:39:14;;;;;;;3.83;1.52;;;7.30;77.20;;;;;;5072900;28;20395;-69
2021/05/06 06:41:41;;;;;;;2.17;1.33;;;7.30;77.20;;;;;;5088408;28;20036;-69
2021/05/06 06:44:07;;;;;;;3.38;1.60;;;7.30;77.10;;;;;;5086582;28;20388;-69
2021/05/06 06:46:32;;;;;;;5.05;1.45;;;7.30;76.90;;;;;;5073498;28;20032;-69
2021/05/06 06:48:58;;;;;;;3.60;1.77;;;7.30;76.80;;;;;;5074549;28;20046;-69
2021/05/06 06:51:24;;;;;;;2.92;1.52;;;7.30;77.00;;;;;;5071167;28;20115;-70
2021/05/06 06:53:51;;;;;;;3.22;1.60;;;7.30;76.90;;;;;;5092306;28;20035;-70
2021/05/06 06:56:16;;;;;;;3.20;1.55;;;7.30;76.70;;;;;;5073750;28;20491;-69
2021/05/06 06:58:44;;;;;;;5.75;1.65;;;7.20;76.80;;;;;;5093182;28;20073;-69
2021/05/06 07:01:09;;;;;;;4.57;1.75;;;7.20;76.90;;;;;;5092389;28;20058;-70
2021/05/06 07:03:35;;;;;;;4.85;1.80;;;7.20;77.00;;;;;;5070677;28;21612;-69
2021/05/06 07:06:01;;;;;;;4.22;2.40;;;7.30;77.00;;;;;;5084060;28;20024;-69
2021/05/06 07:08:31;;;;;;;5.10;2.70;;;7.20;76.60;;;;;;5087240;28;20040;-69
2021/05/06 07:10:59;;;;;;;3.63;1.65;;;7.10;77.00;;;;;;5074610;28;20028;-69
2021/05/06 07:13:26;;;;;;;2.42;1.73;;;7.10;77.40;;;;;;5073650;28;20043;-69
2021/05/06 07:15:55;;;;;;;2.53;1.63;;;7.10;77.40;;;;;;5089279;28;20024;-69
2021/05/06 07:18:21;;;;;;;4.55;1.73;;;7.00;77.40;;;;;;5083992;28;20035;-69
2021/05/06 07:20:48;;;;;;;3.80;1.75;;;7.00;77.70;;;;;;5092732;28;20099;-69
2021/05/06 07:23:19;;;;;;;2.88;1.67;;;7.00;77.80;;;;;;5073864;28;20546;-69
2021/05/06 07:25:46;;;;;;;1.70;1.60;;;7.00;78.10;;;;;;5092024;28;20357;-69
2021/05/06 07:28:28;;;;;;;6.30;1.77;;;7.00;78.30;;;;;;5073933;28;20498;-69
2021/05/06 07:30:54;;;;;;;3.45;1.98;;;7.00;78.70;;;;;;5072197;28;20399;-70
2021/05/06 07:33:19;;;;;;;3.05;1.75;;;7.00;78.60;;;;;;5068474;28;20035;-70
2021/05/06 07:35:45;;;;;;;6.57;2.92;;;7.00;78.90;;;;;;5091243;28;20020;-70
2021/05/06 07:38:11;;;;;;;3.33;1.83;;;7.00;79.00;;;;;;5087156;28;20036;-71
2021/05/06 07:40:38;;;;;;;9.07;1.85;;;7.00;79.20;;;;;;5091434;28;20032;-70
2021/05/06 07:43:04;;;;;;;3.95;1.88;;;7.00;79.20;;;;;;5073086;28;20487;-70
2021/05/06 07:45:30;;;;;;;4.90;1.77;;;7.10;79.20;;;;;;5073104;28;20066;-71
2021/05/06 07:47:57;;;;;;;5.38;1.92;;;7.00;79.10;;;;;;5092057;28;20046;-71
2021/05/06 07:50:24;;;;;;;3.00;1.83;;;7.10;79.20;;;;;;5091719;28;20046;-71
2021/05/06 07:52:52;;;;;;;5.75;1.88;;;7.10;79.30;;;;;;5080371;28;20021;-70
2021/05/06 07:55:18;;;;;;;5.60;1.90;;;7.10;79.50;;;;;;5070824;28;20020;-70
2021/05/06 07:57:44;;;;;;;6.60;2.00;;;7.10;79.40;;;;;;5074944;28;20422;-70
2021/05/06 08:00:13;;;;;;;4.32;1.77;;;7.20;79.50;;;;;;5083012;28;20111;-70
2021/05/06 08:02:41;;;;;;;4.57;1.80;;;7.30;79.70;;;;;;5071530;28;20032;-70
2021/05/06 08:05:07;;;;;;;3.03;1.60;;;7.30;79.60;;;;;;5090827;28;20096;-69
2021/05/06 08:07:33;;;;;;;5.15;2.10;;;7.40;79.40;;;;;;5091166;28;20024;-70
2021/05/06 08:09:59;;;;;;;3.05;1.77;;;7.40;79.40;;;;;;5092420;28;20051;-69
2021/05/06 08:12:25;;;;;;;4.32;2.28;;;7.40;79.40;;;;;;5091409;28;20110;-69
2021/05/06 08:14:53;;;;;;;5.65;1.90;;;7.50;79.50;;;;;;5090668;28;20104;-69
2021/05/06 08:17:19;;;;;;;4.22;1.88;;;7.50;79.50;;;;;;5088026;28;20024;-69
2021/05/06 08:19:46;;;;;;;4.32;2.20;;;7.50;79.50;;;;;;5083048;28;20024;-70
2021/05/06 08:22:12;;;;;;;6.47;2.13;;;7.50;79.40;;;;;;5072896;28;20028;-70
2021/05/06 08:24:38;;;;;;;3.92;2.55;;;7.50;79.40;;;;;;5070889;28;20041;-70
2021/05/06 08:27:04;;;;;;;4.68;1.92;;;7.50;79.40;;;;;;5091005;28;20028;-70
2021/05/06 08:29:29;;;;;;;4.93;2.25;;;7.50;79.40;;;;;;5090716;28;20059;-69
2021/05/06 08:31:55;;;;;;;5.30;2.50;;;7.50;79.30;;;;;;5069870;28;20031;-70
2021/05/06 08:34:21;;;;;;;5.53;1.70;;;7.60;79.40;;;;;;5088824;28;20036;-70
2021/05/06 08:36:47;;;;;;;3.15;1.70;;;7.70;79.50;;;;;;5071537;28;20028;-70
2021/05/06 08:39:12;;;;;;;5.03;1.73;;;7.70;79.40;;;;;;5087320;28;20099;-70
2021/05/06 08:41:40;;;;;;;4.30;1.88;;;7.80;79.30;;;;;;5066819;28;20100;-70
2021/05/06 08:44:09;;;;;;;4.80;1.80;;;8.00;79.30;;;;;;5066603;28;20028;-69
2021/05/06 08:46:39;;;;;;;4.00;2.05;;;7.90;79.10;;;;;;5073126;28;20032;-70
2021/05/06 08:49:10;;;;;;;5.85;1.75;;;8.00;79.20;;;;;;5072725;28;20097;-69
2021/05/06 08:51:37;;;;;;;4.80;2.08;;;8.00;79.20;;;;;;5088202;28;20464;-69
2021/05/06 08:54:03;;;;;;;3.75;2.05;;;8.10;79.10;;;;;;5084154;28;20032;-70
2021/05/06 08:56:29;;;;;;;3.75;1.65;;;8.10;79.00;;;;;;5090824;28;20051;-69
2021/05/06 08:58:55;;;;;;;6.32;1.70;;;8.10;78.90;;;;;;5090302;28;20052;-69
2021/05/06 09:01:20;;;;;;;7.25;2.33;;;8.20;78.90;;;;;;5091220;28;20057;-69
2021/05/06 09:03:46;;;;;;;5.70;2.17;;;8.20;78.90;;;;;;5089778;28;20520;-69
2021/05/06 09:06:19;;;;;;;5.97;1.83;;;8.30;79.00;;;;;;5090287;28;20024;-70
2021/05/06 09:08:46;;;;;;;2.67;1.60;;;8.30;78.70;;;;;;5089643;28;20116;-69
2021/05/06 09:11:13;;;;;;;6.07;1.80;;;8.40;78.50;;;;;;5090505;28;20368;-69
2021/05/06 09:13:39;;;;;;;6.38;2.63;;;8.40;78.40;;;;;;5086461;28;20562;-69
2021/05/06 09:16:06;;;;;;;8.70;2.63;;;8.40;78.30;;;;;;5084151;28;20103;-69
2021/05/06 09:18:43;;;;;;;9.05;2.92;;;8.40;78.50;;;;;;5089436;28;20453;-69
2021/05/06 09:21:30;;;;;;;7.50;2.80;;;8.40;78.60;;;;;;5086975;28;20505;-69
2021/05/06 09:24:19;;;;;;;6.45;2.78;;;8.40;78.50;;;;;;5087898;28;20411;-68
2021/05/06 09:26:45;;;;;;;7.35;2.20;;;8.50;78.40;;;;;;5071521;28;20105;-69
2021/05/06 09:29:12;;;;;;;7.50;2.70;;;8.40;78.30;;;;;;5091074;28;20032;-69
2021/05/06 09:31:39;;;;;;;5.53;2.70;;;8.40;78.10;;;;;;5088774;28;20120;-69
2021/05/06 09:34:07;;;;;;;3.95;2.00;;;8.50;78.20;;;;;;5099931;22;20492;-89
2021/05/06 09:36:33;;;;;;;4.38;2.67;;;8.40;78.10;;;;;;5051743;28;20027;-88
2021/05/06 09:39:02;;;;;;;5.07;2.25;;;8.40;78.20;;;;;;5072458;28;20471;-89
2021/05/06 09:41:32;;;;;;;7.38;3.75;;;8.40;78.30;;;;;;5049888;28;20021;-88
2021/05/06 09:44:16;;;;;;;12.77;6.50;;;8.40;78.10;;;;;;5048621;28;20028;-89
2021/05/06 09:46:43;;;;;;;7.65;4.78;;;8.40;78.00;;;;;;5053437;28;20035;-88
2021/05/06 09:49:16;;;;;;;9.00;3.80;;;8.40;78.00;;;;;;5053402;28;20043;-87
2021/05/06 09:51:55;;;;;;;8.02;2.88;;;8.40;78.10;;;;;;5052887;28;20025;-88
2021/05/06 09:54:29;;;;;;;5.97;2.53;;;8.50;78.10;;;;;;5054044;28;20035;-88
2021/05/06 09:57:00;;;;;;;10.52;6.20;;;8.50;78.20;;;;;;5053532;28;20035;-88
2021/05/06 09:59:31;;;;;;;9.75;5.78;;;8.50;78.00;;;;;;5071631;28;20016;-88
2021/05/06 10:02:18;;;;;;;11.13;7.32;;;8.50;77.90;;;;;;5055714;28;20074;-88
2021/05/06 10:04:47;;;;;;;6.25;3.20;;;8.50;77.90;;;;;;5053721;28;20397;-88
2021/05/06 10:07:16;;;;;;;3.70;2.25;;;8.60;77.90;;;;;;5054495;28;20089;-88
2021/05/06 10:10:24;;;;;;;8.18;1.90;;;8.60;77.80;;;;;;5054472;28;20056;-89
2021/05/06 10:12:50;;;;;;;7.72;2.45;;;8.60;77.70;;;;;;5064816;28;20042;-89
2021/05/06 10:15:18;;;;;;;6.45;2.55;;;8.50;78.10;;;;;;5054368;28;20107;-89
2021/05/06 10:17:43;;;;;;;7.40;2.53;;;8.50;78.00;;;;;;5054306;28;20048;-89
2021/05/06 10:20:10;;;;;;;8.57;4.03;;;8.60;77.80;;;;;;5054175;28;20415;-89
2021/05/06 10:22:36;;;;;;;4.75;2.70;;;8.60;77.80;;;;;;5053789;28;20119;-89
2021/05/06 10:25:07;;;;;;;4.35;2.13;;;8.60;77.60;;;;;;5054214;28;20063;-89
2021/05/06 10:27:34;;;;;;;1.77;1.65;;;8.60;77.60;;;;;;5053873;28;20033;-89
2021/05/06 10:30:03;;;;;;;4.78;1.90;;;8.60;77.50;;;;;;5053932;28;20012;-88
2021/05/06 10:32:31;;;;;;;6.70;2.00;;;8.60;77.50;;;;;;5054555;28;20119;-89
2021/05/06 10:35:01;;;;;;;5.72;2.08;;;8.60;77.50;;;;;;5045279;28;20071;-89
2021/05/06 10:37:36;;;;;;;6.25;2.30;;;8.60;77.40;;;;;;5046061;28;20112;-89
2021/05/06 10:40:22;;;;;;;4.68;2.25;;;8.60;77.20;;;;;;5053916;28;20028;-88
2021/05/06 10:42:53;;;;;;;4.57;1.90;;;8.60;77.30;;;;;;5053925;28;20539;-89
2021/05/06 10:45:21;;;;;;;4.30;1.85;;;8.60;77.50;;;;;;5056332;28;20033;-89
2021/05/06 10:47:52;;;;;;;5.53;1.83;;;8.70;77.60;;;;;;5055627;28;20059;-88
2021/05/06 10:50:36;;;;;;;5.07;1.58;;;8.70;77.40;;;;;;5051327;28;20064;-88
2021/05/06 10:53:04;;;;;;;6.40;2.13;;;8.70;77.20;;;;;;5075307;28;20023;-90
2021/05/06 10:55:46;;;;;;;5.75;2.55;;;8.70;77.10;;;;;;5057362;28;20085;-89
2021/05/06 10:58:27;;;;;;;5.13;2.43;;;8.80;77.10;;;;;;5048935;28;20097;-89
2021/05/06 11:01:13;;;;;;;4.53;2.10;;;8.80;76.90;;;;;;5057179;28;20028;-89
2021/05/06 11:04:21;;;;;;;;;;;;;;;;;;;;;
2021/05/06 11:06:47;;;;;;;5.00;1.85;;;8.90;76.80;;;;;;5075756;28;20035;-90
2021/05/06 11:09:38;;;;;;;4.00;2.20;;;8.90;76.80;;;;;;5057093;28;20119;-89
2021/05/06 11:12:35;;;;;;;8.88;2.25;;;8.90;76.90;;;;;;5056655;28;20028;-89
2021/05/06 11:15:01;;;;;;;5.80;1.73;;;9.00;76.90;;;;;;5054881;28;20556;-89
2021/05/06 11:17:39;;;;;;;3.95;1.80;;;9.00;76.70;;;;;;5056733;28;20047;-89
2021/05/06 11:20:11;;;;;;;5.93;1.63;;;9.00;76.60;;;;;;5056493;28;20036;-89
2021/05/06 11:22:43;;;;;;;6.20;1.98;;;9.00;76.70;;;;;;5057223;28;20035;-89
2021/05/06 11:25:31;;;;;;;5.78;2.00;;;9.00;76.70;;;;;;5041752;28;20029;-89
2021/05/06 11:28:05;;;;;;;9.10;2.05;;;9.00;76.60;;;;;;5050967;28;20021;-89
2021/05/06 11:30:43;;;;;;;7.78;1.52;;;9.00;76.60;;;;;;5056645;28;20029;-89
2021/05/06 11:33:28;;;;;;;8.65;1.77;;;9.00;76.40;;;;;;5056432;28;20023;-89
2021/05/06 11:36:04;;;;;;;6.57;1.75;;;9.00;76.50;;;;;;5049355;28;20024;-89
2021/05/06 11:38:39;;;;;;;7.15;1.83;;;9.00;76.40;;;;;;5056686;28;20363;-89
2021/05/06 11:41:12;;;;;;;5.65;2.00;;;9.00;76.10;;;;;;5056665;28;20021;-89
2021/05/06 11:47:29;;;;;;;6.05;1.88;;;9.00;76.20;;;;;;5060964;28;20041;-89
2021/05/06 11:49:55;;;;;;;5.25;1.25;;;9.00;76.30;;;;;;5053513;28;20024;-89
2021/05/06 11:52:34;;;;;;;3.05;1.50;;;9.10;76.50;;;;;;5036244;28;20021;-89
2021/05/06 11:54:59;;;;;;;5.82;1.70;;;9.10;76.30;;;;;;5035992;28;20021;-89
2021/05/06 11:57:28;;;;;;;6.45;2.20;;;9.10;76.20;;;;;;5036191;28;20092;-88
2021/05/06 11:59:54;;;;;;;3.42;1.98;;;9.10;76.20;;;;;;5035647;28;20423;-89
2021/05/06 12:02:24;;;;;;;4.97;1.40;;;9.20;76.30;;;;;;5055453;28;20032;-88
2021/05/06 12:04:55;;;;;;;5.70;1.52;;;9.20;76.10;;;;;;5055501;28;20036;-88
2021/05/06 12:07:22;;;;;;;5.70;1.60;;;9.20;76.00;;;;;;5047573;28;20024;-88
2021/05/06 12:09:49;;;;;;;4.07;1.92;;;9.20;76.10;;;;;;5048735;28;20033;-88
2021/05/06 12:12:22;;;;;;;5.43;1.90;;;9.30;76.10;;;;;;5046607;28;20047;-89
2021/05/06 12:14:48;;;;;;;3.10;1.77;;;9.30;76.00;;;;;;5056271;28;20541;-89
2021/05/06 12:17:21;;;;;;;7.35;1.67;;;9.30;75.80;;;;;;5055949;28;20059;-88
2021/05/06 12:19:48;;;;;;;3.70;1.55;;;9.40;75.90;;;;;;5056033;28;20025;-88
2021/05/06 12:22:15;;;;;;;5.85;2.40;;;9.40;75.80;;;;;;5056245;28;20111;-89
2021/05/06 12:24:44;;;;;;;7.43;3.78;;;9.40;75.80;;;;;;5055252;28;20024;-88
2021/05/06 12:27:24;;;;;;;4.90;2.25;;;9.40;75.90;;;;;;5055771;28;20390;-88
2021/05/06 12:29:52;;;;;;;5.82;2.33;;;9.40;75.90;;;;;;5055588;28;20434;-88
2021/05/06 12:32:19;;;;;;;3.33;1.58;;;9.50;75.80;;;;;;5055573;28;20032;-88
2021/05/06 12:34:45;;;;;;;5.57;1.60;;;9.50;75.70;;;;;;5035772;28;20037;-89
2021/05/06 12:37:11;;;;;;;3.65;1.70;;;9.50;75.60;;;;;;5050061;28;20031;-88
2021/05/06 12:39:40;;;;;;;3.58;1.60;;;9.50;75.50;;;;;;5055496;28;20044;-88
2021/05/06 12:42:06;;;;;;;3.28;1.40;;;9.50;75.70;;;;;;5055672;28;20031;-88
2021/05/06 12:44:41;;;;;;;5.05;1.73;;;9.50;75.70;;;;;;5055521;28;20028;-88
2021/05/06 12:47:20;;;;;;;4.95;1.48;;;9.50;75.80;;;;;;5056890;28;20051;-89
2021/05/06 12:50:06;;;;;;;5.38;1.98;;;9.60;75.60;;;;;;5055342;28;20027;-89
2021/05/06 12:52:38;;;;;;;4.20;2.22;;;9.60;75.70;;;;;;5055335;28;20025;-90
2021/05/06 12:55:39;;;;;;;6.07;1.73;;;9.60;75.80;;;;;;5038667;28;20413;-89
2021/05/06 13:02:29;;;;;;;2.15;1.40;;;9.70;75.60;;;;;;5073345;28;20418;-89
2021/05/06 13:04:55;;;;;;;2.17;1.45;;;9.70;75.50;;;;;;4947954;28;20035;-88
2021/05/06 13:07:30;;;;;;;1.20;1.10;;;9.70;75.50;;;;;;4967436;28;20571;-89
2021/05/06 13:10:02;;;;;;;3.42;1.25;;;9.70;75.60;;;;;;5054204;28;20034;-89
2021/05/06 13:13:04;;;;;;;2.55;1.20;;;9.80;75.60;;;;;;5035645;28;20105;-89
2021/05/06 13:16:07;;;;;;;1.80;1.10;;;9.80;75.40;;;;;;5040077;28;20120;-90
2021/05/06 13:27:47;;;;;;;5.10;2.60;;;9.70;75.80;;;;;;5056943;28;20093;-90
2021/05/06 13:30:34;;;;;;;4.97;1.90;;;9.70;75.70;;;;;;5056367;28;20028;-90
2021/05/06 13:33:11;;;;;;;5.60;3.28;;;9.60;75.40;;;;;;5054936;28;20521;-90
2021/05/06 13:35:40;;;;;;;2.30;1.13;;;9.50;75.50;;;;;;5043963;28;20073;-90
2021/05/06 13:38:06;;;;;;;1.30;0.90;;;9.40;75.50;;;;;;5055050;28;20028;-90
2021/05/06 13:40:31;;;;;;;3.65;1.90;;;9.40;75.80;;;;;;5055245;28;20102;-90
2021/05/06 13:42:57;;;;;;;1.20;1.10;;;9.30;76.10;;;;;;5054024;28;20028;-90
2021/05/06 13:45:23;;;;;;;2.83;1.48;;;9.30;76.30;;;;;;5050714;28;20219;-90
2021/05/06 13:47:49;;;;;;;3.22;1.77;;;9.20;76.30;;;;;;5050449;28;20028;-91
2021/05/06 13:50:20;;;;;;;2.75;1.50;;;9.20;76.40;;;;;;5056359;28;20116;-89
2021/05/06 13:52:46;;;;;;;2.63;1.30;;;9.20;76.80;;;;;;5057428;28;20115;-91
2021/05/06 13:55:13;;;;;;;1.30;1.00;;;9.10;76.70;;;;;;5057320;28;20048;-91
2021/05/06 13:57:40;;;;;;;0.90;0.90;;;9.10;76.90;;;;;;5055349;28;20021;-91
2021/05/06 14:00:06;;;;;;;2.20;1.48;;;9.10;77.30;;;;;;5053488;28;20199;-91
2021/05/06 14:02:32;;;;;;;2.22;1.27;;;9.10;77.60;;;;;;5054780;28;20082;-91
2021/05/06 14:04:58;;;;;;;7.80;2.38;;;9.10;77.60;;;;;;5053478;28;20025;-91
2021/05/06 14:07:24;;;;;;;2.88;1.30;;;9.10;77.80;;;;;;5053936;28;20032;-91
2021/05/06 14:09:49;;;;;;;1.88;1.70;;;9.00;77.90;;;;;;5054784;28;20080;-90
2021/05/06 14:12:15;;;;;;;3.47;1.77;;;9.10;78.30;;;;;;5054434;28;20546;-91
2021/05/06 14:14:41;;;;;;;1.77;1.20;;;9.00;78.20;;;;;;5053058;28;20032;-91
2021/05/06 14:17:06;;;;;;;2.47;1.40;;;9.00;78.20;;;;;;5053912;28;20028;-91
2021/05/06 14:19:32;;;;;;;2.55;1.58;;;9.10;78.50;;;;;;5056086;28;20052;-89
2021/05/06 14:21:58;;;;;;;3.38;1.50;;;9.00;78.50;;;;;;5058541;28;20029;-90
2021/05/06 14:24:23;;;;;;;1.90;1.80;;;9.00;78.60;;;;;;5042638;28;20017;-90
2021/05/06 14:26:50;;;;;;;1.50;1.27;;;8.90;78.70;;;;;;5040211;28;20020;-90
2021/05/06 14:29:19;;;;;;;1.33;1.13;;;8.90;78.70;;;;;;5041803;28;20029;-89
2021/05/06 14:31:45;;;;;;;3.70;1.42;;;8.90;78.90;;;;;;5047042;28;20405;-90
2021/05/06 14:34:10;;;;;;;2.53;1.45;;;8.90;79.00;;;;;;5060391;28;20041;-89
2021/05/06 14:36:36;;;;;;;1.95;1.42;;;8.90;79.40;;;;;;5059633;28;20024;-90
2021/05/06 14:39:03;;;;;;;1.40;1.23;;;9.00;80.00;;;;;;5059060;28;20042;-90
2021/05/06 14:41:29;;;;;;;1.52;1.10;;;9.00;79.40;;;;;;5058172;28;20032;-89
2021/05/06 14:43:56;;;;;;;1.67;1.55;;;8.90;79.20;;;;;;5058769;28;20024;-90
2021/05/06 14:46:24;;;;;;;1.77;1.30;;;8.90;79.50;;;;;;5061866;28;20029;-90
2021/05/06 14:48:50;;;;;;;1.38;1.23;;;8.90;79.80;;;;;;5060912;28;20017;-90
2021/05/06 14:51:16;;;;;;;2.90;1.52;;;8.90;79.80;;;;;;5062025;28;20025;-90
2021/05/06 14:53:42;;;;;;;3.63;1.70;;;8.90;79.80;;;;;;5058579;28;20032;-90
2021/05/06 14:56:08;;;;;;;1.65;1.55;;;8.90;80.10;;;;;;5040109;28;20182;-90
2021/05/06 14:58:34;;;;;;;2.40;1.70;;;9.00;80.40;;;;;;5052550;28;20491;-90
2021/05/06 15:00:59;;;;;;;1.98;1.70;;;9.00;80.60;;;;;;5037818;28;20025;-90
2021/05/06 15:03:25;;;;;;;2.22;1.55;;;9.00;80.70;;;;;;5056267;28;20028;-90
2021/05/06 15:05:50;;;;;;;2.45;2.22;;;9.00;80.80;;;;;;5057784;28;20028;-90
2021/05/06 15:08:17;;;;;;;2.97;1.75;;;9.00;80.60;;;;;;5057123;28;20027;-90
2021/05/06 15:10:44;;;;;;;2.97;2.55;;;9.00;80.70;;;;;;5057751;28;20032;-91
2021/05/06 15:13:10;;;;;;;1.50;1.40;;;8.90;80.70;;;;;;5057447;28;20074;-91
2021/05/06 15:15:35;;;;;;;2.08;1.85;;;8.90;80.80;;;;;;5058313;28;20024;-92
2021/05/06 15:18:01;;;;;;;3.67;1.60;;;8.90;80.90;;;;;;5059568;28;20059;-91
2021/05/06 15:20:27;;;;;;;2.05;1.70;;;8.90;81.00;;;;;;5059162;28;20117;-90
2021/05/06 15:22:53;;;;;;;2.30;1.80;;;8.90;81.00;;;;;;5057694;28;20033;-91
2021/05/06 15:25:23;;;;;;;2.33;1.75;;;8.90;81.10;;;;;;5056127;28;20036;-91
2021/05/06 15:27:50;;;;;;;4.57;2.78;;;8.80;81.20;;;;;;5039080;28;20479;-90
2021/05/06 15:30:20;;;;;;;11.77;5.53;;;8.80;81.30;;;;;;5049967;28;20027;-92
2021/05/06 15:32:52;;;;;;;16.38;7.32;;;8.70;81.30;;;;;;5060306;28;20016;-93
2021/05/06 15:35:18;;;;;;;;;;;8.70;81.50;;;;;;5097600;22;20418;-70
2021/05/06 15:37:44;;;;;;;4.50;2.40;;;8.70;81.20;;;;;;5069580;28;19912;-69
2021/05/06 15:40:12;;;;;;;3.58;2.33;;;8.70;81.30;;;;;;5071483;28;20027;-69
2021/05/06 15:42:39;;;;;;;3.17;2.30;;;8.60;81.40;;;;;;5082757;28;20102;-70
2021/05/06 15:45:07;;;;;;;1.92;1.77;;;8.60;81.60;;;;;;5063717;28;20020;-70
2021/05/06 15:47:33;;;;;;;11.07;7.10;;;8.50;81.70;;;;;;5069915;28;20024;-69
2021/05/06 15:49:59;;;;;;;4.40;2.30;;;8.50;81.90;;;;;;5075056;28;20514;-70
2021/05/06 15:52:26;;;;;;;2.15;1.98;;;8.40;81.90;;;;;;5083942;28;20024;-70
2021/05/06 15:54:51;;;;;;;2.65;2.30;;;8.40;82.10;;;;;;5062278;28;20037;-69
2021/05/06 15:57:17;;;;;;;3.75;1.98;;;8.40;82.30;;;;;;5068045;28;20469;-70
2021/05/06 15:59:43;;;;;;;6.18;1.80;;;8.30;82.50;;;;;;5048726;28;20028;-69
2021/05/06 16:02:09;;;;;;;6.38;2.25;;;8.30;82.60;;;;;;5071368;28;20027;-70
2021/05/06 16:04:38;;;;;;;2.13;1.50;;;8.30;82.80;;;;;;5067662;28;20032;-70
2021/05/06 16:07:04;;;;;;;1.88;1.73;;;8.20;83.00;;;;;;5066775;28;20021;-69
2021/05/06 16:09:29;;;;;;;1.85;1.40;;;8.20;83.20;;;;;;5070309;28;20169;-69
2021/05/06 16:11:55;;;;;;;2.65;1.80;;;8.10;83.30;;;;;;5087987;28;20032;-70
2021/05/06 16:14:21;;;;;;;1.75;1.45;;;8.10;83.70;;;;;;5065868;28;20673;-70
2021/05/06 16:16:46;;;;;;;1.80;1.70;;;8.10;83.90;;;;;;5050624;28;20032;-70
2021/05/06 16:19:12;;;;;;;2.60;2.15;;;8.10;84.20;;;;;;5067385;28;20031;-69
2021/05/06 16:21:38;;;;;;;4.68;1.80;;;8.20;84.50;;;;;;5050384;28;20024;-69
2021/05/06 16:24:05;;;;;;;1.73;1.42;;;8.20;84.90;;;;;;5058876;28;20462;-70
2021/05/06 16:26:32;;;;;;;1.60;1.38;;;8.20;85.00;;;;;;5063139;28;20029;-70
2021/05/06 16:28:57;;;;;;;1.80;1.23;;;8.20;85.10;;;;;;5047955;28;20028;-70
2021/05/06 16:31:24;;;;;;;2.17;1.30;;;8.20;85.10;;;;;;5049204;28;20411;-71
2021/05/06 16:33:55;;;;;;;1.92;1.50;;;8.20;85.20;;;;;;5067657;28;20020;-70
2021/05/06 16:37:04;;;;;;;1.80;1.67;;;8.10;85.50;;;;;;5066454;28;20121;-71
2021/05/06 16:42:02;;;;;;;2.63;1.90;;;8.10;85.80;;;;;;5064772;28;20085;-70
2021/05/06 16:47:00;;;;;;;1.83;1.35;;;8.10;86.10;;;;;;5067727;28;20036;-70
2021/05/06 16:49:26;;;;;;;;;;;8.10;86.50;;;;;;5067634;28;20052;-71
2021/05/06 16:51:52;;;;;;;2.88;1.45;;;8.10;86.20;;;;;;5051148;28;19955;-70
2021/05/06 16:54:19;;;;;;;1.83;1.58;;;8.00;86.30;;;;;;5066492;28;20507;-70
2021/05/06 16:56:46;;;;;;;3.33;1.50;;;8.10;86.60;;;;;;5066199;28;20107;-70